MMZO/ZLO METAR and TAF weather

Enter ICAO airport designator
Station Type Date Time Source
MMZO METAR 2019/04/24 21:47 UTC NOAA

MMZO 242147Z 24010KT 7SM BKN100 BKN210 25/21 A2982 RMK 8/014 HZY


Station Type Date Time Source
MMZO Decoded METAR 2019/04/24 21:47 UTC NOAA

Manzanillo International , Mexico (MMZO) 19-09N 104-34W
Apr 24, 2019 - 05:47 PM EDT / 2019.04.24 2147 UTC
Wind: from the WSW (240 degrees) at 12 MPH (10 KT):0
Visibility: 7 mile(s):0
Sky conditions: mostly cloudy
Temperature: 77 F (25 C)
Dew Point: 69 F (21 C)
Relative Humidity: 78%
Pressure (altimeter): 29.82 in. Hg (1009 hPa)
ob: MMZO 242147Z 24010KT 7SM BKN100 BKN210 25/21 A2982 RMK 8/014 HZY
cycle: 22

Station Type Date Time Source
MMZO TAF 2019/04/24 18:39 UTC NOAA

TAF MMZO 241635Z 2418/2518 24012KT P6SM BKN100 BKN200
FM250300 00000KT P6SM BKN200
FM251200 00000KT 5SM HZ BKN020
FM251600 24010KT P6SM BKN200

Example: see airport list